首页
METAR-TAF:

METAR-TAF

机场 :

克里沃罗格, 乌克兰

纬度: 48-03N, 经度: 033-13-12E, 海拔: 124米

当前天气观测

该预报发布于24分钟前的05:00 UTC
风速8节,风向,在北转西北东北之间变化
温度 9°C
湿度 53%
气压 1021 hPa
能见度10公里或以上
1500米以下无云,无积雨云

METAR: UKDR 090500Z 01004MPS 330V040 CAVOK 09/00 Q1021 R36/09//70 NOSIG

时间: 08:24 (05:24 UTC)

预报

该预报发布于6小时和21分钟前的23:03 UTC
预报有效从09日的 00点(UTC)到 09日的 24点(UTC)
风速10节,风向
能见度10公里或以上
1500米以下无云,无积雨云

TAF: UKDR 082303Z 0900/0924 01005MPS CAVOK TX16/0912Z TN03/0903Z

超过4000个机场的气象观测和天气预报(METAR&TAF报告)。

可查询的气象台以黄色和红色小点在地图上表示。

将鼠标移到小点上方,可查看气象台名称。

然后点击查看天气观测和预报。

如需切换地图:点击带黑十字的绿色按钮放大地图;点击带横线的绿色按钮缩小地图;或者点击绿色箭头查看邻近地区的地图。


METAR-TAF: